Nearby METAR Reports

 

KSJC - San Jose, California, USA
Distance from station: NE 9mi, 14km
Updated: Mon, 22-Oct-2018 3:53pm PDT
Clear
Clear
 Wind from NW
Wind: NW 9 mph , 15 km/h
Temperature: 66°F , 19°C
Dew Point: 52°F , 11°C
Humidity: 60%
Barometer: 29.92 inHg , 1013.2 hPa
Clouds: Clear
Visibility: 9 miles , 14 km
2018/10/22 22:53 KSJC 222253Z 32008KT 9SM CLR 19/11 A2992 RMK AO2 SLP132 T01890106
KNUQ - Moffett Nas/Mtn, California, USA
Distance from station: N 9mi, 14km
Updated: Mon, 22-Oct-2018 3:56pm PDT
Clear
Clear
 Wind from NNW
Wind: NNW 9 mph , 15 km/h
Temperature: 63°F , 17°C
Dew Point: 52°F , 11°C
Humidity: 68%
Barometer: 29.94 inHg , 1013.9 hPa
Clouds: Clear
Visibility: 10 miles , 16 km
2018/10/22 22:56 KNUQ 222256Z 33008KT 10SM CLR 17/11 A2994 RMK AO2 SLP140 T01720111
 
KPAO - Palo Alto, California, USA
Distance from station: NNW 14mi, 23km
Updated: Mon, 22-Oct-2018 2:47pm PDT
NOT Current
Clear
Clear
 Wind from N
Wind: N 12 mph , 19 km/h
Temperature: 63°F , 17°C
Dew Point: 52°F , 11°C
Humidity: 68%
Barometer: 29.94 inHg , 1013.9 hPa
Clouds: Clear
Visibility: 10 miles , 16 km
2018/10/22 21:47 KPAO 222147Z 36010KT 10SM SKC 17/11 A2994
KRHV - San Jose/Reid, California, USA
Distance from station: ENE 12mi, 19km
Updated: Mon, 22-Oct-2018 3:47pm PDT
Clear
Clear
 Wind from NNW
Wind: NNW 12 mph , 19 km/h
Temperature: 68°F , 20°C
Dew Point: 52°F , 11°C
Humidity: 56%
Barometer: 29.90 inHg , 1012.5 hPa
Clouds: Clear
Visibility: 10 miles , 16 km
2018/10/22 22:47 KRHV 222247Z 33010KT 10SM SKC 20/11 A2990
 
KOAK - Oakland, California, USA
Distance from station: NNW 31mi, 50km
Updated: Mon, 22-Oct-2018 3:53pm PDT
Few Clouds
Few Clouds
 Wind from W
Wind: W 15 mph , 24 km/h
Temperature: 63°F , 17°C
Dew Point: 52°F , 11°C
Humidity: 68%
Barometer: 29.94 inHg , 1013.9 hPa
Clouds: Few Clouds
Visibility: 10 miles , 16 km
Cloud details: Few Clouds 1700 ft
Few Clouds 18000 ft
2018/10/22 22:53 KOAK 222253Z 28013KT 10SM FEW017 FEW180 17/11 A2994 RMK AO2 SLP139 T01720106
KSQL - San Carlos Airpo, California, USA
Distance from station: NW 21mi, 34km
Updated: Mon, 22-Oct-2018 3:47pm PDT
Clear
Clear
 Wind from N
Wind: N 9 mph , 15 km/h
Temperature: 64°F , 18°C
Dew Point: 54°F , 12°C
Humidity: 68%
Barometer: 29.93 inHg , 1013.5 hPa
Clouds: Clear
Visibility: 10 miles , 16 km
2018/10/22 22:47 KSQL 222247Z 36008KT 10SM SKC 18/12 A2993
 
KSFO - San Francisco, California, USA
Distance from station: NW 30mi, 49km
Updated: Mon, 22-Oct-2018 3:56pm PDT
Few Clouds
Few Clouds
 Wind from WNW
Wind: WNW 20 mph , 31 km/h
Temperature: 61°F , 16°C
Dew Point: 48°F , 9°C
Humidity: 63%
Barometer: 29.92 inHg , 1013.2 hPa
Clouds: Few Clouds
Visibility: 10 miles , 16 km
Cloud details: Few Clouds 1600 ft
2018/10/22 22:56 KSFO 222256Z 29017KT 10SM FEW016 16/09 A2992 RMK AO2 SLP132 T01610094
KE16 - San Martin, California, USA
Distance from station: ESE 27mi, 43km
Updated: Mon, 22-Oct-2018 3:55pm PDT
Clear
Clear
 Wind from NNW
Wind: NNW 12 mph , 19 km/h, Gust: 16 mph , 26 km/h
Temperature: 72°F , 22°C
Dew Point: 46°F , 8°C
Humidity: 41%
Barometer: 29.91 inHg , 1012.9 hPa
Clouds: Clear
Visibility: 10 miles , 16 km
2018/10/22 22:55 KE16 222255Z AUTO 33010G14KT 10SM CLR 22/08 A2991 RMK AO2
 
KWVI - Watsonville, California, USA
Distance from station: SSE 27mi, 44km
Updated: Mon, 22-Oct-2018 3:53pm PDT
Clear
Clear
 Wind from WSW
Wind: WSW 8 mph , 13 km/h
Temperature: 63°F , 17°C
Dew Point: 54°F , 12°C
Humidity: 73%
Barometer: 29.93 inHg , 1013.5 hPa
Clouds: Clear
Visibility: 10 miles , 16 km
2018/10/22 22:53 KWVI 222253Z AUTO 25007KT 10SM CLR 17/12 A2993 RMK AO2 SLP135 T01720117
KHAF - Half Moon Bay, California, USA
Distance from station: WNW 31mi, 50km
Updated: Wed, 03-Oct-2018 1:40pm PDT
NOT Current
Haze, Mostly cloudy
Haze, Mostly cloudy
 Wind from S
Wind: S 5 mph , 7 km/h
Temperature: 64°F , 18°C
Dew Point: 59°F , 15°C
Humidity: 83%
Barometer: 29.92 inHg , 1013.2 hPa
Summary: Haze
Clouds: Mostly cloudy
Visibility: 4 miles , 6 km
Cloud details: Few Clouds 2100 ft
Mostly cloudy 3000 ft
2018/10/03 20:40 KHAF 032040Z AUTO 19004KT 4SM HZ FEW021 BKN030 18/15 A2992 RMK AO2
 
KHWD - Hayward, California, USA
Distance from station: N 28mi, 44km
Updated: Mon, 22-Oct-2018 3:54pm PDT
Clear
Clear
 Wind from WNW
Wind: WNW 13 mph , 20 km/h
Temperature: 64°F , 18°C
Dew Point: 50°F , 10°C
Humidity: 60%
Barometer: 29.93 inHg , 1013.5 hPa
Clouds: Clear
Visibility: 10 miles , 16 km
2018/10/22 22:54 KHWD 222254Z 29011KT 10SM CLR 18/10 A2993 RMK AO2 SLP145 T01830100
KLVK - Livermore, California, USA
Distance from station: NNE 31mi, 51km
Updated: Mon, 22-Oct-2018 3:53pm PDT
Haze, Clear
Haze, Clear
 Wind from W
Wind: W 8 mph , 13 km/h
Temperature: 73°F , 23°C
Dew Point: 45°F , 7°C
Humidity: 36%
Barometer: 29.89 inHg , 1012.2 hPa
Summary: Haze
Clouds: Clear
Visibility: 5 miles , 8 km
2018/10/22 22:53 KLVK 222253Z 28007KT 5SM HZ CLR 23/07 A2989 RMK AO2 SLP120 T02280072